sensor_id;sensor_type;location;lat;lon;timestamp;P1;durP1;ratioP1;P2;durP2;ratioP2
58244;SDS011;44550;43.864;25.986;2023-06-24T00:03:32;7.22;;;6.53;;
58244;SDS011;44550;43.864;25.986;2023-06-24T00:07:58;7.30;;;6.70;;
58244;SDS011;44550;43.864;25.986;2023-06-24T00:29:16;9.32;;;7.35;;
58244;SDS011;44550;43.864;25.986;2023-06-24T00:33:53;11.18;;;7.03;;
58244;SDS011;44550;43.864;25.986;2023-06-24T00:44:34;7.80;;;6.38;;
58244;SDS011;44550;43.864;25.986;2023-06-24T00:49:15;7.55;;;6.43;;
58244;SDS011;44550;43.864;25.986;2023-06-24T00:53:48;8.05;;;7.35;;
58244;SDS011;44550;43.864;25.986;2023-06-24T00:58:14;10.07;;;6.60;;
58244;SDS011;44550;43.864;25.986;2023-06-24T01:07:24;7.00;;;6.40;;
58244;SDS011;44550;43.864;25.986;2023-06-24T01:12:01;7.50;;;6.30;;
58244;SDS011;44550;43.864;25.986;2023-06-24T01:16:20;6.68;;;5.97;;
58244;SDS011;44550;43.864;25.986;2023-06-24T01:21:18;8.13;;;7.13;;
58244;SDS011;44550;43.864;25.986;2023-06-24T01:31:54;7.65;;;6.95;;
58244;SDS011;44550;43.864;25.986;2023-06-24T01:37:02;7.18;;;6.20;;
58244;SDS011;44550;43.864;25.986;2023-06-24T01:57:52;6.82;;;6.22;;
58244;SDS011;44550;43.864;25.986;2023-06-24T02:02:19;8.60;;;6.43;;
58244;SDS011;44550;43.864;25.986;2023-06-24T02:07:03;7.70;;;6.35;;
58244;SDS011;44550;43.864;25.986;2023-06-24T02:11:48;6.75;;;6.07;;
58244;SDS011;44550;43.864;25.986;2023-06-24T02:16:15;8.73;;;7.05;;
58244;SDS011;44550;43.864;25.986;2023-06-24T02:20:54;7.28;;;6.57;;
58244;SDS011;44550;43.864;25.986;2023-06-24T02:25:53;7.22;;;6.63;;
58244;SDS011;44550;43.864;25.986;2023-06-24T02:30:41;6.88;;;6.22;;
58244;SDS011;44550;43.864;25.986;2023-06-24T02:35:06;6.78;;;6.18;;
58244;SDS011;44550;43.864;25.986;2023-06-24T02:53:47;9.65;;;6.43;;
58244;SDS011;44550;43.864;25.986;2023-06-24T03:02:53;9.68;;;6.45;;
58244;SDS011;44550;43.864;25.986;2023-06-24T03:07:02;6.72;;;6.13;;
58244;SDS011;44550;43.864;25.986;2023-06-24T03:11:14;6.38;;;5.78;;
58244;SDS011;44550;43.864;25.986;2023-06-24T03:15:32;7.35;;;6.75;;
58244;SDS011;44550;43.864;25.986;2023-06-24T03:19:36;7.97;;;7.05;;
58244;SDS011;44550;43.864;25.986;2023-06-24T03:28:59;13.52;;;7.03;;
58244;SDS011;44550;43.864;25.986;2023-06-24T03:33:26;7.65;;;6.95;;
58244;SDS011;44550;43.864;25.986;2023-06-24T03:37:50;7.35;;;6.72;;
58244;SDS011;44550;43.864;25.986;2023-06-24T03:53:39;9.10;;;6.40;;
58244;SDS011;44550;43.864;25.986;2023-06-24T03:59:26;6.22;;;5.70;;
58244;SDS011;44550;43.864;25.986;2023-06-24T04:09:43;6.05;;;5.55;;
58244;SDS011;44550;43.864;25.986;2023-06-24T04:14:48;6.93;;;6.22;;
58244;SDS011;44550;43.864;25.986;2023-06-24T04:19:57;6.30;;;5.70;;
58244;SDS011;44550;43.864;25.986;2023-06-24T04:25:10;7.15;;;6.43;;
58244;SDS011;44550;43.864;25.986;2023-06-24T04:29:59;7.60;;;5.95;;
58244;SDS011;44550;43.864;25.986;2023-06-24T04:39:22;6.32;;;5.72;;
58244;SDS011;44550;43.864;25.986;2023-06-24T04:44:48;11.25;;;6.43;;
58244;SDS011;44550;43.864;25.986;2023-06-24T04:49:22;7.85;;;5.63;;
58244;SDS011;44550;43.864;25.986;2023-06-24T04:53:33;7.18;;;6.57;;
58244;SDS011;44550;43.864;25.986;2023-06-24T04:58:30;6.88;;;5.78;;
58244;SDS011;44550;43.864;25.986;2023-06-24T05:02:44;7.55;;;6.32;;
58244;SDS011;44550;43.864;25.986;2023-06-24T05:11:31;7.55;;;6.63;;
58244;SDS011;44550;43.864;25.986;2023-06-24T05:15:56;5.53;;;5.07;;
58244;SDS011;44550;43.864;25.986;2023-06-24T05:20:31;6.32;;;5.72;;
58244;SDS011;44550;43.864;25.986;2023-06-24T05:29:33;6.22;;;5.68;;
58244;SDS011;44550;43.864;25.986;2023-06-24T05:34:27;6.60;;;5.78;;
58244;SDS011;44550;43.864;25.986;2023-06-24T05:39:10;6.57;;;5.35;;
58244;SDS011;44550;43.864;25.986;2023-06-24T05:44:06;7.10;;;5.90;;
58244;SDS011;44550;43.864;25.986;2023-06-24T05:48:37;7.38;;;6.22;;
58244;SDS011;44550;43.864;25.986;2023-06-24T05:52:54;8.57;;;5.57;;
58244;SDS011;44550;43.864;25.986;2023-06-24T05:57:55;7.60;;;5.22;;
58244;SDS011;44550;43.864;25.986;2023-06-24T06:02:51;6.20;;;5.60;;
58244;SDS011;44550;43.864;25.986;2023-06-24T06:07:21;11.45;;;6.82;;
58244;SDS011;44550;43.864;25.986;2023-06-24T06:34:11;8.25;;;5.90;;
58244;SDS011;44550;43.864;25.986;2023-06-24T06:38:15;9.88;;;5.95;;
58244;SDS011;44550;43.864;25.986;2023-06-24T06:43:29;9.35;;;5.80;;
58244;SDS011;44550;43.864;25.986;2023-06-24T06:48:32;8.32;;;6.10;;
58244;SDS011;44550;43.864;25.986;2023-06-24T07:45:14;6.57;;;6.03;;
58244;SDS011;44550;43.864;25.986;2023-06-24T08:01:25;18.80;;;7.00;;
58244;SDS011;44550;43.864;25.986;2023-06-24T08:07:05;10.97;;;6.70;;
58244;SDS011;44550;43.864;25.986;2023-06-24T08:12:09;9.02;;;5.90;;
58244;SDS011;44550;43.864;25.986;2023-06-24T08:20:51;32.65;;;7.65;;
58244;SDS011;44550;43.864;25.986;2023-06-24T08:26:00;5.90;;;5.38;;
58244;SDS011;44550;43.864;25.986;2023-06-24T08:41:53;6.55;;;5.18;;
58244;SDS011;44550;43.864;25.986;2023-06-24T08:46:54;6.45;;;5.85;;
58244;SDS011;44550;43.864;25.986;2023-06-24T08:50:57;7.03;;;5.70;;
58244;SDS011;44550;43.864;25.986;2023-06-24T09:05:11;7.18;;;4.32;;
58244;SDS011;44550;43.864;25.986;2023-06-24T09:15:53;4.03;;;3.60;;
58244;SDS011;44550;43.864;25.986;2023-06-24T09:20:11;6.10;;;3.92;;
58244;SDS011;44550;43.864;25.986;2023-06-24T09:25:38;6.00;;;4.72;;
58244;SDS011;44550;43.864;25.986;2023-06-24T09:30:42;4.25;;;3.95;;
58244;SDS011;44550;43.864;25.986;2023-06-24T09:40:53;4.50;;;3.45;;
58244;SDS011;44550;43.864;25.986;2023-06-24T09:45:33;6.97;;;4.22;;
58244;SDS011;44550;43.864;25.986;2023-06-24T09:49:50;5.70;;;3.50;;
58244;SDS011;44550;43.864;25.986;2023-06-24T09:54:07;5.68;;;3.85;;
58244;SDS011;44550;43.864;25.986;2023-06-24T10:08:13;5.90;;;4.65;;
58244;SDS011;44550;43.864;25.986;2023-06-24T10:17:21;5.25;;;4.75;;
58244;SDS011;44550;43.864;25.986;2023-06-24T10:21:46;6.63;;;4.35;;
58244;SDS011;44550;43.864;25.986;2023-06-24T10:25:53;6.20;;;5.00;;
58244;SDS011;44550;43.864;25.986;2023-06-24T10:30:18;5.55;;;4.82;;
58244;SDS011;44550;43.864;25.986;2023-06-24T10:34:31;6.90;;;4.70;;
58244;SDS011;44550;43.864;25.986;2023-06-24T10:39:38;8.87;;;5.13;;
58244;SDS011;44550;43.864;25.986;2023-06-24T10:49:39;7.30;;;5.78;;
58244;SDS011;44550;43.864;25.986;2023-06-24T10:54:47;7.97;;;5.25;;
58244;SDS011;44550;43.864;25.986;2023-06-24T11:00:20;6.45;;;5.30;;
58244;SDS011;44550;43.864;25.986;2023-06-24T11:05:03;8.02;;;5.40;;
58244;SDS011;44550;43.864;25.986;2023-06-24T11:10:42;10.70;;;5.40;;
58244;SDS011;44550;43.864;25.986;2023-06-24T11:26:29;8.27;;;5.18;;
58244;SDS011;44550;43.864;25.986;2023-06-24T11:31:44;5.95;;;4.70;;
58244;SDS011;44550;43.864;25.986;2023-06-24T11:36:16;5.43;;;4.93;;
58244;SDS011;44550;43.864;25.986;2023-06-24T11:41:07;13.68;;;6.60;;
58244;SDS011;44550;43.864;25.986;2023-06-24T11:55:23;5.65;;;4.55;;
58244;SDS011;44550;43.864;25.986;2023-06-24T12:04:53;6.07;;;5.03;;
58244;SDS011;44550;43.864;25.986;2023-06-24T12:09:14;5.28;;;4.88;;
58244;SDS011;44550;43.864;25.986;2023-06-24T12:13:53;6.38;;;4.88;;
58244;SDS011;44550;43.864;25.986;2023-06-24T12:18:04;5.53;;;4.57;;
58244;SDS011;44550;43.864;25.986;2023-06-24T12:27:31;10.13;;;4.63;;
58244;SDS011;44550;43.864;25.986;2023-06-24T12:32:53;7.78;;;5.70;;
58244;SDS011;44550;43.864;25.986;2023-06-24T12:37:38;5.47;;;4.68;;
58244;SDS011;44550;43.864;25.986;2023-06-24T12:42:37;7.20;;;4.60;;
58244;SDS011;44550;43.864;25.986;2023-06-24T13:19:38;8.90;;;5.53;;
58244;SDS011;44550;43.864;25.986;2023-06-24T13:35:01;5.60;;;4.78;;
58244;SDS011;44550;43.864;25.986;2023-06-24T13:49:36;6.32;;;5.72;;
58244;SDS011;44550;43.864;25.986;2023-06-24T13:53:37;4.63;;;4.22;;
58244;SDS011;44550;43.864;25.986;2023-06-24T13:58:08;5.07;;;4.15;;
58244;SDS011;44550;43.864;25.986;2023-06-24T14:07:19;7.28;;;3.88;;
58244;SDS011;44550;43.864;25.986;2023-06-24T14:11:46;5.35;;;4.85;;
58244;SDS011;44550;43.864;25.986;2023-06-24T14:20:39;6.80;;;4.70;;
58244;SDS011;44550;43.864;25.986;2023-06-24T14:25:06;8.35;;;5.07;;
58244;SDS011;44550;43.864;25.986;2023-06-24T14:29:18;5.47;;;4.40;;
58244;SDS011;44550;43.864;25.986;2023-06-24T14:33:30;4.78;;;4.38;;
58244;SDS011;44550;43.864;25.986;2023-06-24T14:42:27;4.87;;;4.33;;
58244;SDS011;44550;43.864;25.986;2023-06-24T14:47:10;5.38;;;4.85;;
58244;SDS011;44550;43.864;25.986;2023-06-24T14:51:15;4.47;;;4.10;;
58244;SDS011;44550;43.864;25.986;2023-06-24T14:56:09;6.78;;;4.07;;
58244;SDS011;44550;43.864;25.986;2023-06-24T15:00:18;5.60;;;3.92;;
58244;SDS011;44550;43.864;25.986;2023-06-24T15:10:40;4.10;;;3.80;;
58244;SDS011;44550;43.864;25.986;2023-06-24T15:27:04;4.85;;;4.35;;
58244;SDS011;44550;43.864;25.986;2023-06-24T15:31:59;3.97;;;3.67;;
58244;SDS011;44550;43.864;25.986;2023-06-24T15:41:39;7.00;;;4.15;;
58244;SDS011;44550;43.864;25.986;2023-06-24T15:46:12;6.47;;;3.75;;
58244;SDS011;44550;43.864;25.986;2023-06-24T15:50:46;4.10;;;3.80;;
58244;SDS011;44550;43.864;25.986;2023-06-24T15:55:14;4.72;;;3.92;;
58244;SDS011;44550;43.864;25.986;2023-06-24T16:03:56;4.60;;;3.97;;
58244;SDS011;44550;43.864;25.986;2023-06-24T16:07:56;5.25;;;4.40;;
58244;SDS011;44550;43.864;25.986;2023-06-24T16:11:58;4.47;;;4.05;;
58244;SDS011;44550;43.864;25.986;2023-06-24T16:16:05;5.00;;;4.57;;
58244;SDS011;44550;43.864;25.986;2023-06-24T16:20:35;5.65;;;4.50;;
58244;SDS011;44550;43.864;25.986;2023-06-24T16:25:05;5.10;;;4.22;;
58244;SDS011;44550;43.864;25.986;2023-06-24T16:29:54;33.42;;;7.65;;
58244;SDS011;44550;43.864;25.986;2023-06-24T16:38:37;4.10;;;3.80;;
58244;SDS011;44550;43.864;25.986;2023-06-24T16:42:57;5.78;;;4.05;;
58244;SDS011;44550;43.864;25.986;2023-06-24T16:47:21;4.28;;;3.75;;
58244;SDS011;44550;43.864;25.986;2023-06-24T16:51:43;5.85;;;3.67;;
58244;SDS011;44550;43.864;25.986;2023-06-24T16:56:12;6.20;;;5.03;;
58244;SDS011;44550;43.864;25.986;2023-06-24T17:00:16;7.38;;;4.15;;
58244;SDS011;44550;43.864;25.986;2023-06-24T17:04:30;5.13;;;4.38;;
58244;SDS011;44550;43.864;25.986;2023-06-24T17:08:30;5.45;;;4.82;;
58244;SDS011;44550;43.864;25.986;2023-06-24T17:12:32;9.52;;;5.60;;
58244;SDS011;44550;43.864;25.986;2023-06-24T17:16:33;10.43;;;5.13;;
58244;SDS011;44550;43.864;25.986;2023-06-24T17:20:35;4.32;;;4.03;;
58244;SDS011;44550;43.864;25.986;2023-06-24T17:24:44;11.38;;;5.03;;
58244;SDS011;44550;43.864;25.986;2023-06-24T17:29:12;9.85;;;5.35;;
58244;SDS011;44550;43.864;25.986;2023-06-24T17:33:43;6.78;;;5.10;;
58244;SDS011;44550;43.864;25.986;2023-06-24T17:42:52;4.88;;;4.45;;
58244;SDS011;44550;43.864;25.986;2023-06-24T17:47:19;5.05;;;4.18;;
58244;SDS011;44550;43.864;25.986;2023-06-24T17:51:24;5.38;;;4.88;;
58244;SDS011;44550;43.864;25.986;2023-06-24T17:55:47;6.73;;;5.00;;
58244;SDS011;44550;43.864;25.986;2023-06-24T18:00:31;6.90;;;4.60;;
58244;SDS011;44550;43.864;25.986;2023-06-24T18:05:13;5.28;;;4.85;;
58244;SDS011;44550;43.864;25.986;2023-06-24T18:10:01;9.70;;;5.25;;
58244;SDS011;44550;43.864;25.986;2023-06-24T18:14:29;5.32;;;4.80;;
58244;SDS011;44550;43.864;25.986;2023-06-24T18:18:48;12.25;;;5.15;;
58244;SDS011;44550;43.864;25.986;2023-06-24T18:23:44;9.60;;;5.88;;
58244;SDS011;44550;43.864;25.986;2023-06-24T18:34:21;13.10;;;7.88;;
58244;SDS011;44550;43.864;25.986;2023-06-24T18:38:54;13.75;;;8.73;;
58244;SDS011;44550;43.864;25.986;2023-06-24T18:49:13;14.32;;;9.02;;
58244;SDS011;44550;43.864;25.986;2023-06-24T19:00:41;13.68;;;8.57;;
58244;SDS011;44550;43.864;25.986;2023-06-24T19:04:33;17.05;;;8.32;;
58244;SDS011;44550;43.864;25.986;2023-06-24T19:09:15;13.37;;;7.27;;
58244;SDS011;44550;43.864;25.986;2023-06-24T19:14:06;23.33;;;10.30;;
58244;SDS011;44550;43.864;25.986;2023-06-24T19:18:40;18.23;;;8.27;;
58244;SDS011;44550;43.864;25.986;2023-06-24T19:23:47;20.27;;;8.45;;
58244;SDS011;44550;43.864;25.986;2023-06-24T19:29:05;13.85;;;6.93;;
58244;SDS011;44550;43.864;25.986;2023-06-24T19:34:36;25.42;;;7.90;;
58244;SDS011;44550;43.864;25.986;2023-06-24T19:40:04;18.80;;;6.03;;
58244;SDS011;44550;43.864;25.986;2023-06-24T19:45:00;17.40;;;5.93;;
58244;SDS011;44550;43.864;25.986;2023-06-24T19:50:12;13.45;;;4.57;;
58244;SDS011;44550;43.864;25.986;2023-06-24T19:54:23;15.18;;;5.85;;
58244;SDS011;44550;43.864;25.986;2023-06-24T19:59:15;12.55;;;4.82;;
58244;SDS011;44550;43.864;25.986;2023-06-24T20:03:56;16.23;;;5.65;;
58244;SDS011;44550;43.864;25.986;2023-06-24T20:12:44;13.38;;;5.38;;
58244;SDS011;44550;43.864;25.986;2023-06-24T20:17:52;15.73;;;5.38;;
58244;SDS011;44550;43.864;25.986;2023-06-24T20:27:22;16.17;;;5.22;;
58244;SDS011;44550;43.864;25.986;2023-06-24T20:32:08;16.90;;;5.00;;
58244;SDS011;44550;43.864;25.986;2023-06-24T20:36:41;12.27;;;5.68;;
58244;SDS011;44550;43.864;25.986;2023-06-24T20:46:57;12.43;;;4.93;;
58244;SDS011;44550;43.864;25.986;2023-06-24T20:51:48;17.02;;;5.40;;
58244;SDS011;44550;43.864;25.986;2023-06-24T20:56:56;9.98;;;6.28;;
58244;SDS011;44550;43.864;25.986;2023-06-24T21:01:58;11.85;;;4.72;;
58244;SDS011;44550;43.864;25.986;2023-06-24T21:06:39;12.45;;;5.80;;
58244;SDS011;44550;43.864;25.986;2023-06-24T21:10:57;19.13;;;6.38;;
58244;SDS011;44550;43.864;25.986;2023-06-24T21:15:47;13.32;;;5.90;;
58244;SDS011;44550;43.864;25.986;2023-06-24T21:19:55;9.25;;;6.50;;
58244;SDS011;44550;43.864;25.986;2023-06-24T21:24:44;16.00;;;7.38;;
58244;SDS011;44550;43.864;25.986;2023-06-24T21:29:01;9.98;;;6.35;;
58244;SDS011;44550;43.864;25.986;2023-06-24T21:33:29;15.77;;;7.55;;
58244;SDS011;44550;43.864;25.986;2023-06-24T21:37:58;11.93;;;6.55;;
58244;SDS011;44550;43.864;25.986;2023-06-24T21:42:47;21.63;;;6.57;;
58244;SDS011;44550;43.864;25.986;2023-06-24T21:47:25;15.80;;;7.15;;
58244;SDS011;44550;43.864;25.986;2023-06-24T21:51:58;8.85;;;6.18;;
58244;SDS011;44550;43.864;25.986;2023-06-24T22:02:15;12.50;;;7.72;;
58244;SDS011;44550;43.864;25.986;2023-06-24T22:17:30;13.02;;;6.80;;
58244;SDS011;44550;43.864;25.986;2023-06-24T22:31:45;16.50;;;8.47;;
58244;SDS011;44550;43.864;25.986;2023-06-24T22:41:30;12.45;;;7.22;;
58244;SDS011;44550;43.864;25.986;2023-06-24T22:56:48;18.02;;;7.80;;
58244;SDS011;44550;43.864;25.986;2023-06-24T23:06:59;14.52;;;7.28;;
58244;SDS011;44550;43.864;25.986;2023-06-24T23:22:36;13.00;;;7.05;;
58244;SDS011;44550;43.864;25.986;2023-06-24T23:27:28;17.50;;;7.60;;
58244;SDS011;44550;43.864;25.986;2023-06-24T23:32:53;14.80;;;7.43;;
58244;SDS011;44550;43.864;25.986;2023-06-24T23:37:56;8.60;;;7.70;;
58244;SDS011;44550;43.864;25.986;2023-06-24T23:48:31;12.63;;;6.32;;
58244;SDS011;44550;43.864;25.986;2023-06-24T23:53:39;9.73;;;6.30;;
58244;SDS011;44550;43.864;25.986;2023-06-24T23:58:29;12.45;;;5.70;;
